createdAt,value
2022-10-09T00:01:28.620Z,99.90
2022-10-09T00:03:59.351Z,99.90
2022-10-09T00:06:29.057Z,99.80
2022-10-09T00:08:57.185Z,99.70
2022-10-09T00:11:26.840Z,99.40
2022-10-09T00:13:56.236Z,99.40
2022-10-09T00:16:25.737Z,99.50
2022-10-09T00:18:54.285Z,99.60
2022-10-09T00:21:25.658Z,99.70
2022-10-09T00:23:55.652Z,99.70
2022-10-09T00:26:24.668Z,99.70
2022-10-09T00:28:52.881Z,99.90
2022-10-09T00:31:21.604Z,99.80
2022-10-09T00:33:50.159Z,99.90
2022-10-09T00:36:20.164Z,99.90
2022-10-09T00:38:50.115Z,99.90
2022-10-09T00:41:24.573Z,99.90
2022-10-09T00:43:54.720Z,99.90
2022-10-09T00:46:29.524Z,99.90
2022-10-09T00:49:06.337Z,99.90
2022-10-09T00:51:35.678Z,99.90
2022-10-09T00:54:08.218Z,99.90
2022-10-09T00:56:36.741Z,99.90
2022-10-09T00:59:05.659Z,99.80
2022-10-09T01:01:33.907Z,99.60
2022-10-09T01:04:02.122Z,99.40
2022-10-09T01:06:42.688Z,99.40
2022-10-09T01:09:16.201Z,99.60
2022-10-09T01:11:51.832Z,99.70
2022-10-09T01:14:26.233Z,99.80
2022-10-09T01:17:02.150Z,99.90
2022-10-09T01:19:57.742Z,99.90
2022-10-09T01:22:41.035Z,99.90
2022-10-09T01:25:15.479Z,99.90
2022-10-09T01:27:45.140Z,99.90
2022-10-09T01:30:14.150Z,99.90
2022-10-09T01:32:45.064Z,99.90
2022-10-09T01:35:15.159Z,99.90
2022-10-09T01:37:45.272Z,99.90
2022-10-09T01:40:15.387Z,99.90
2022-10-09T01:42:47.238Z,99.90
2022-10-09T01:45:16.367Z,99.90
2022-10-09T01:47:44.728Z,99.90
2022-10-09T01:50:16.873Z,99.90
2022-10-09T01:52:49.486Z,99.90
2022-10-09T01:55:27.991Z,99.90
2022-10-09T01:58:05.173Z,99.90
2022-10-09T02:00:38.265Z,99.90
2022-10-09T02:03:10.639Z,99.90
2022-10-09T02:05:41.915Z,99.90
2022-10-09T02:08:13.231Z,99.90
2022-10-09T02:10:43.230Z,99.90
2022-10-09T02:13:13.460Z,99.90
2022-10-09T02:15:48.368Z,99.90
2022-10-09T02:18:20.651Z,99.90
2022-10-09T02:20:56.585Z,99.90
2022-10-09T02:23:26.605Z,99.90
2022-10-09T02:25:55.219Z,99.90
2022-10-09T02:28:24.561Z,99.90
2022-10-09T02:31:00.265Z,99.90
2022-10-09T02:33:32.488Z,99.90
2022-10-09T02:36:00.979Z,99.90
2022-10-09T02:38:29.110Z,99.90
2022-10-09T02:40:59.723Z,99.90
2022-10-09T02:43:29.730Z,99.90
2022-10-09T02:45:57.615Z,99.90
2022-10-09T02:48:25.590Z,99.90
2022-10-09T02:50:53.511Z,99.90
2022-10-09T02:53:21.492Z,99.90
2022-10-09T02:55:49.551Z,99.90
2022-10-09T02:58:17.510Z,99.90
2022-10-09T03:00:49.682Z,99.90
2022-10-09T03:03:19.261Z,99.90
2022-10-09T03:05:47.434Z,99.90
2022-10-09T03:08:16.047Z,99.90
2022-10-09T03:10:43.996Z,99.90
2022-10-09T03:13:11.921Z,99.90
2022-10-09T03:15:40.091Z,99.90
2022-10-09T03:18:09.437Z,99.90
2022-10-09T03:20:38.438Z,99.90
2022-10-09T03:23:06.399Z,99.90
2022-10-09T03:25:34.354Z,99.90
2022-10-09T03:28:02.954Z,99.90
2022-10-09T03:30:31.032Z,99.90
2022-10-09T03:32:59.021Z,99.90
2022-10-09T03:35:28.317Z,99.90
2022-10-09T03:37:56.290Z,99.90
2022-10-09T03:40:24.329Z,99.90
2022-10-09T03:42:52.260Z,99.90
2022-10-09T03:45:20.336Z,99.90
2022-10-09T03:47:48.298Z,99.90
2022-10-09T03:50:16.682Z,99.90
2022-10-09T03:52:46.347Z,99.90
2022-10-09T03:55:14.667Z,99.90
2022-10-09T03:57:42.649Z,99.90
2022-10-09T04:00:12.039Z,99.90
2022-10-09T04:02:40.034Z,99.90
2022-10-09T04:05:09.145Z,99.90
2022-10-09T04:07:37.182Z,99.90
2022-10-09T04:10:07.298Z,99.90
2022-10-09T04:12:35.287Z,99.90
2022-10-09T04:15:03.829Z,99.90
2022-10-09T04:17:31.849Z,99.90
2022-10-09T04:19:59.999Z,99.90
2022-10-09T04:22:28.678Z,99.90
2022-10-09T04:24:56.674Z,99.90
2022-10-09T04:27:26.044Z,99.90
2022-10-09T04:29:53.952Z,99.90
2022-10-09T04:32:22.026Z,99.90
2022-10-09T04:34:49.938Z,99.90
2022-10-09T04:37:18.068Z,99.90
2022-10-09T04:39:46.106Z,99.90
2022-10-09T04:42:14.204Z,99.90
2022-10-09T04:44:43.465Z,99.90
2022-10-09T04:47:11.634Z,99.90
2022-10-09T04:49:39.741Z,99.90
2022-10-09T04:52:07.784Z,99.90
2022-10-09T04:54:35.642Z,99.90
2022-10-09T04:57:04.008Z,99.90
2022-10-09T04:59:32.023Z,99.90
2022-10-09T05:02:07.162Z,99.90
2022-10-09T05:04:35.165Z,99.90
2022-10-09T05:07:05.943Z,99.90
2022-10-09T05:09:33.934Z,99.90
2022-10-09T05:12:01.841Z,99.90
2022-10-09T05:14:29.841Z,99.90
2022-10-09T05:17:13.541Z,99.90
2022-10-09T05:19:43.739Z,99.90
2022-10-09T05:22:11.780Z,99.90
2022-10-09T05:24:39.771Z,99.90
2022-10-09T05:27:07.722Z,99.90
2022-10-09T05:29:35.738Z,99.90
2022-10-09T05:32:04.538Z,99.90
2022-10-09T05:34:32.712Z,99.90
2022-10-09T05:37:02.111Z,99.90
2022-10-09T05:39:30.134Z,99.90
2022-10-09T05:41:58.114Z,99.90
2022-10-09T05:44:26.158Z,99.90
2022-10-09T05:46:54.106Z,99.90
2022-10-09T05:49:22.189Z,99.90
2022-10-09T05:51:50.541Z,99.90
2022-10-09T05:54:19.958Z,99.90
2022-10-09T05:56:47.941Z,99.90
2022-10-09T05:59:19.541Z,99.90
2022-10-09T06:01:50.159Z,99.90
2022-10-09T06:04:19.970Z,99.90
2022-10-09T06:06:49.001Z,99.90
2022-10-09T06:09:19.994Z,99.90
2022-10-09T06:11:47.976Z,99.90
2022-10-09T06:14:15.887Z,99.90
2022-10-09T06:16:46.030Z,99.90
2022-10-09T06:19:16.779Z,99.90
2022-10-09T06:21:45.705Z,99.90
2022-10-09T06:24:23.294Z,99.90
2022-10-09T06:26:53.751Z,99.90
2022-10-09T06:29:21.868Z,99.90
2022-10-09T06:31:49.946Z,99.90
2022-10-09T06:34:17.919Z,99.90
2022-10-09T06:36:45.954Z,99.90
2022-10-09T06:39:13.861Z,99.90
2022-10-09T06:41:43.163Z,99.90
2022-10-09T06:44:41.684Z,99.90
2022-10-09T06:47:09.614Z,99.90
2022-10-09T06:49:37.633Z,99.90
2022-10-09T06:52:05.581Z,99.90
2022-10-09T06:54:33.578Z,99.90
2022-10-09T06:57:02.834Z,99.90
2022-10-09T06:59:30.963Z,99.90
2022-10-09T07:01:58.910Z,99.90
2022-10-09T07:04:27.177Z,99.90
2022-10-09T07:06:55.250Z,99.90
2022-10-09T07:09:23.281Z,99.90
2022-10-09T07:11:51.228Z,99.90
2022-10-09T07:14:20.776Z,99.90
2022-10-09T07:16:49.808Z,99.90
2022-10-09T07:19:18.812Z,99.90
2022-10-09T07:21:48.376Z,99.90
2022-10-09T07:24:16.862Z,99.90
2022-10-09T07:26:46.581Z,99.90
2022-10-09T07:29:17.370Z,99.90
2022-10-09T07:31:46.899Z,99.90
2022-10-09T07:34:14.850Z,99.90
2022-10-09T07:36:43.134Z,99.90
2022-10-09T07:39:11.088Z,99.90
2022-10-09T07:41:39.032Z,99.90
2022-10-09T07:44:07.010Z,99.90
2022-10-09T07:46:35.035Z,99.90
2022-10-09T07:49:05.552Z,99.90
2022-10-09T07:51:33.653Z,99.90
2022-10-09T07:54:02.264Z,99.90
2022-10-09T07:56:32.350Z,99.90
2022-10-09T07:59:01.799Z,99.90
2022-10-09T08:01:30.908Z,99.90
2022-10-09T08:04:00.005Z,99.90
2022-10-09T08:06:30.049Z,99.90
2022-10-09T08:08:59.523Z,99.90
2022-10-09T08:11:29.089Z,99.90
2022-10-09T08:13:57.459Z,99.90
2022-10-09T08:16:31.309Z,99.90
2022-10-09T08:19:02.888Z,99.90
2022-10-09T08:21:32.920Z,99.90
2022-10-09T08:24:02.024Z,99.90
2022-10-09T08:26:31.703Z,99.90
2022-10-09T08:29:01.312Z,99.90
2022-10-09T08:31:30.773Z,99.90
2022-10-09T08:34:00.955Z,99.90
2022-10-09T08:36:55.529Z,99.90
2022-10-09T08:39:23.692Z,99.70
2022-10-09T08:41:53.925Z,99.50
2022-10-09T08:44:26.131Z,99.50
2022-10-09T08:47:03.362Z,99.50
2022-10-09T08:49:37.757Z,99.40
2022-10-09T08:52:17.013Z,98.90
2022-10-09T08:54:45.346Z,99.10
2022-10-09T08:57:16.287Z,99.00
2022-10-09T08:59:45.325Z,98.60
2022-10-09T09:02:44.768Z,98.40
2022-10-09T09:05:26.844Z,98.50
2022-10-09T09:08:03.751Z,98.40
2022-10-09T09:10:41.083Z,98.40
2022-10-09T09:13:20.477Z,98.10
2022-10-09T09:15:54.045Z,98.00
2022-10-09T09:18:37.611Z,97.00
2022-10-09T09:21:14.882Z,97.10
2022-10-09T09:23:47.785Z,97.10
2022-10-09T09:26:19.450Z,96.80
2022-10-09T09:28:51.249Z,96.70
2022-10-09T09:31:24.092Z,96.80
2022-10-09T09:33:58.406Z,96.60
2022-10-09T09:36:31.241Z,96.40
2022-10-09T09:41:48.845Z,96.40
2022-10-09T09:44:18.429Z,95.70
2022-10-09T09:46:48.690Z,95.90
2022-10-09T09:49:17.961Z,95.60
2022-10-09T09:51:46.882Z,95.40
2022-10-09T09:54:20.763Z,95.00
2022-10-09T09:59:44.719Z,93.90
2022-10-09T10:02:16.145Z,93.20
2022-10-09T10:04:52.514Z,93.60
2022-10-09T10:07:31.695Z,93.80
2022-10-09T10:10:06.535Z,93.80
2022-10-09T10:12:34.785Z,93.70
2022-10-09T10:15:02.947Z,93.50
2022-10-09T10:17:38.403Z,93.60
2022-10-09T10:20:07.547Z,93.50
2022-10-09T10:22:36.652Z,93.10
2022-10-09T10:25:10.543Z,92.70
2022-10-09T10:27:41.467Z,92.70
2022-10-09T10:30:15.157Z,92.60
2022-10-09T10:32:52.085Z,91.50
2022-10-09T10:35:24.597Z,92.40
2022-10-09T10:37:59.182Z,91.80
2022-10-09T10:40:33.582Z,91.20
2022-10-09T10:43:30.111Z,90.70
2022-10-09T10:46:03.715Z,90.60
2022-10-09T10:48:33.316Z,90.70
2022-10-09T10:51:12.816Z,90.20
2022-10-09T10:53:53.206Z,89.70
2022-10-09T10:56:30.648Z,90.20
2022-10-09T10:59:12.903Z,88.90
2022-10-09T11:01:50.721Z,88.60
2022-10-09T11:04:45.245Z,87.80
2022-10-09T11:07:22.945Z,88.00
2022-10-09T11:10:00.262Z,87.60
2022-10-09T11:12:48.105Z,86.90
2022-10-09T11:15:25.885Z,83.70
2022-10-09T11:18:00.127Z,83.00
2022-10-09T11:20:55.420Z,81.50
2022-10-09T11:23:35.149Z,82.10
2022-10-09T11:26:13.809Z,82.10
2022-10-09T11:28:47.084Z,80.30
2022-10-09T11:31:17.816Z,78.60
2022-10-09T11:33:48.027Z,76.50
2022-10-09T11:36:19.606Z,78.30
2022-10-09T11:38:52.458Z,78.60
2022-10-09T11:41:21.272Z,78.30
2022-10-09T11:44:00.281Z,77.20
2022-10-09T11:46:40.325Z,78.10
2022-10-09T11:49:16.971Z,74.60
2022-10-09T11:51:51.733Z,76.40
2022-10-09T11:54:22.489Z,75.80
2022-10-09T11:56:55.363Z,73.80
2022-10-09T11:59:29.889Z,73.30
2022-10-09T12:01:59.702Z,74.90
2022-10-09T12:04:50.552Z,73.80
2022-10-09T12:07:29.270Z,75.20
2022-10-09T12:10:03.644Z,75.20
2022-10-09T12:12:32.501Z,75.50
2022-10-09T12:15:11.976Z,74.80
2022-10-09T12:17:48.212Z,72.80
2022-10-09T12:20:20.163Z,69.80
2022-10-09T12:23:21.340Z,67.50
2022-10-09T12:25:45.122Z,68.10
2022-10-09T12:28:21.154Z,67.60
2022-10-09T12:30:52.737Z,68.90
2022-10-09T12:33:26.704Z,67.00
2022-10-09T12:36:05.916Z,64.90
2022-10-09T12:38:34.255Z,63.20
2022-10-09T12:41:05.336Z,63.80
2022-10-09T12:43:34.567Z,61.30
2022-10-09T12:46:07.879Z,63.20
2022-10-09T12:48:39.794Z,65.00
2022-10-09T12:51:16.453Z,62.80
2022-10-09T12:53:49.066Z,62.20
2022-10-09T12:56:21.946Z,61.40
2022-10-09T12:58:50.802Z,59.90
2022-10-09T13:01:21.246Z,61.10
2022-10-09T13:03:57.264Z,59.10
2022-10-09T13:06:26.789Z,60.50
2022-10-09T13:08:58.143Z,60.90
2022-10-09T13:11:32.322Z,60.70
2022-10-09T13:14:00.413Z,61.20
2022-10-09T13:16:40.959Z,61.40
2022-10-09T13:19:22.506Z,61.70
2022-10-09T13:22:18.795Z,59.90
2022-10-09T13:24:47.315Z,61.60
2022-10-09T13:27:15.732Z,60.00
2022-10-09T13:29:44.149Z,61.60
2022-10-09T13:32:15.481Z,60.20
2022-10-09T13:34:43.848Z,60.40
2022-10-09T13:37:13.760Z,59.40
2022-10-09T13:39:41.768Z,61.50
2022-10-09T13:42:12.691Z,61.20
2022-10-09T13:44:40.725Z,61.20
2022-10-09T13:47:08.614Z,60.90
2022-10-09T13:49:37.922Z,59.50
2022-10-09T13:52:05.846Z,59.30
2022-10-09T13:54:33.789Z,59.20
2022-10-09T13:57:01.708Z,59.30
2022-10-09T13:59:31.276Z,58.60
2022-10-09T14:01:59.450Z,59.60
2022-10-09T14:04:28.426Z,58.90
2022-10-09T14:06:57.958Z,59.30
2022-10-09T14:09:25.936Z,59.40
2022-10-09T14:11:53.877Z,60.10
2022-10-09T14:14:22.730Z,60.40
2022-10-09T14:16:51.185Z,59.10
2022-10-09T14:19:19.516Z,59.60
2022-10-09T14:21:47.809Z,60.40
2022-10-09T14:24:18.486Z,60.80
2022-10-09T14:26:51.375Z,60.90
2022-10-09T14:29:20.159Z,60.50
2022-10-09T14:31:50.872Z,60.30
2022-10-09T14:34:19.069Z,59.60
2022-10-09T14:36:47.406Z,60.30
2022-10-09T14:39:17.030Z,60.00
2022-10-09T14:41:45.894Z,60.60
2022-10-09T14:44:14.006Z,60.30
2022-10-09T14:46:41.953Z,61.50
2022-10-09T14:49:11.090Z,60.20
2022-10-09T14:51:41.358Z,60.50
2022-10-09T14:54:10.207Z,61.10
2022-10-09T14:56:39.843Z,61.90
2022-10-09T14:59:07.733Z,62.10
2022-10-09T15:01:36.394Z,62.50
2022-10-09T15:04:06.273Z,62.40
2022-10-09T15:06:35.507Z,62.30
2022-10-09T15:09:05.940Z,62.10
2022-10-09T15:11:35.775Z,62.30
2022-10-09T15:14:05.710Z,62.20
2022-10-09T15:16:33.899Z,62.70
2022-10-09T15:19:01.821Z,62.90
2022-10-09T15:21:32.542Z,63.40
2022-10-09T15:24:02.368Z,63.80
2022-10-09T15:26:33.281Z,64.30
2022-10-09T15:29:04.452Z,64.50
2022-10-09T15:31:34.218Z,64.40
2022-10-09T15:34:03.309Z,64.70
2022-10-09T15:36:34.201Z,65.00
2022-10-09T15:39:09.223Z,65.40
2022-10-09T15:41:39.152Z,65.90
2022-10-09T15:44:17.625Z,66.50
2022-10-09T15:46:47.282Z,66.10
2022-10-09T15:49:15.547Z,67.00
2022-10-09T15:51:43.509Z,66.80
2022-10-09T15:54:12.125Z,66.60
2022-10-09T15:56:41.259Z,67.30
2022-10-09T15:59:12.635Z,67.50
2022-10-09T16:01:40.755Z,67.50
2022-10-09T16:04:08.739Z,68.40
2022-10-09T16:06:36.792Z,68.40
2022-10-09T16:09:05.064Z,69.30
2022-10-09T16:11:34.508Z,68.60
2022-10-09T16:14:02.440Z,68.70
2022-10-09T16:16:32.086Z,69.00
2022-10-09T16:19:00.752Z,69.20
2022-10-09T16:21:29.845Z,69.60
2022-10-09T16:23:59.852Z,69.20
2022-10-09T16:26:29.308Z,69.70
2022-10-09T16:28:59.841Z,70.00
2022-10-09T16:31:30.156Z,69.80
2022-10-09T16:33:59.973Z,70.30
2022-10-09T16:36:28.135Z,70.60
2022-10-09T16:38:57.227Z,70.70
2022-10-09T16:41:25.722Z,70.70
2022-10-09T16:43:55.588Z,71.60
2022-10-09T16:46:25.562Z,71.80
2022-10-09T16:48:54.759Z,71.90
2022-10-09T16:51:26.218Z,71.90
2022-10-09T16:53:55.601Z,72.00
2022-10-09T16:56:25.716Z,72.40
2022-10-09T16:58:56.660Z,72.70
2022-10-09T17:01:25.314Z,72.80
2022-10-09T17:03:55.225Z,72.80
2022-10-09T17:06:24.877Z,73.10
2022-10-09T17:08:53.426Z,73.40
2022-10-09T17:11:22.721Z,73.30
2022-10-09T17:13:50.637Z,73.40
2022-10-09T17:16:21.008Z,73.70
2022-10-09T17:18:49.950Z,73.90
2022-10-09T17:21:19.509Z,73.70
2022-10-09T17:23:49.243Z,74.20
2022-10-09T17:26:19.657Z,74.50
2022-10-09T17:28:48.681Z,74.40
2022-10-09T17:31:18.449Z,74.50
2022-10-09T17:33:48.283Z,74.60
2022-10-09T17:36:18.702Z,74.50
2022-10-09T17:38:49.177Z,74.30
2022-10-09T17:41:19.152Z,73.90
2022-10-09T17:43:47.199Z,73.60
2022-10-09T17:46:15.667Z,73.20
2022-10-09T17:48:45.187Z,73.10
2022-10-09T17:51:17.005Z,72.60
2022-10-09T17:53:45.459Z,72.60
2022-10-09T17:56:14.761Z,72.40
2022-10-09T17:58:44.380Z,72.40
2022-10-09T18:01:14.255Z,72.20
2022-10-09T18:03:42.976Z,72.00
2022-10-09T18:06:13.102Z,72.10
2022-10-09T18:08:41.876Z,71.90
2022-10-09T18:11:12.102Z,72.10
2022-10-09T18:13:43.264Z,72.10
2022-10-09T18:16:14.455Z,72.70
2022-10-09T18:18:43.591Z,73.00
2022-10-09T18:21:12.766Z,73.30
2022-10-09T18:23:41.123Z,73.40
2022-10-09T18:26:09.857Z,73.60
2022-10-09T18:28:38.576Z,73.60
2022-10-09T18:31:09.025Z,73.50
2022-10-09T18:33:37.213Z,73.80
2022-10-09T18:36:06.766Z,73.70
2022-10-09T18:38:35.237Z,74.00
2022-10-09T18:41:03.357Z,74.10
2022-10-09T18:43:31.407Z,74.40
2022-10-09T18:46:00.792Z,74.70
2022-10-09T18:48:32.471Z,75.20
2022-10-09T18:51:02.018Z,75.40
2022-10-09T18:53:30.449Z,75.70
2022-10-09T18:55:58.888Z,75.90
2022-10-09T18:58:27.068Z,76.00
2022-10-09T19:00:55.067Z,76.20
2022-10-09T19:03:23.117Z,76.30
2022-10-09T19:05:52.498Z,76.20
2022-10-09T19:08:20.468Z,76.20
2022-10-09T19:10:51.059Z,76.70
2022-10-09T19:13:19.415Z,76.60
2022-10-09T19:15:52.512Z,76.70
2022-10-09T19:18:20.966Z,76.70
2022-10-09T19:20:49.219Z,76.90
2022-10-09T19:23:25.512Z,77.10
2022-10-09T19:25:55.525Z,77.20
2022-10-09T19:28:24.968Z,77.20
2022-10-09T19:30:53.406Z,77.50
2022-10-09T19:33:21.442Z,77.60
2022-10-09T19:35:51.265Z,77.60
2022-10-09T19:38:21.822Z,78.10
2022-10-09T19:40:50.501Z,77.80
2022-10-09T19:43:19.795Z,78.30
2022-10-09T19:45:49.363Z,77.90
2022-10-09T19:48:18.034Z,78.10
2022-10-09T19:50:46.905Z,78.20
2022-10-09T19:53:15.272Z,78.00
2022-10-09T19:55:44.504Z,78.30
2022-10-09T19:58:16.245Z,78.00
2022-10-09T20:00:46.526Z,78.10
2022-10-09T20:03:14.845Z,78.10
2022-10-09T20:05:44.224Z,78.30
2022-10-09T20:08:12.249Z,78.40
2022-10-09T20:10:41.467Z,78.40
2022-10-09T20:13:10.859Z,78.50
2022-10-09T20:15:43.037Z,78.70
2022-10-09T20:18:11.170Z,78.80
2022-10-09T20:20:39.114Z,78.90
2022-10-09T20:23:07.031Z,79.00
2022-10-09T20:25:34.986Z,79.20
2022-10-09T20:28:03.868Z,79.30
2022-10-09T20:30:33.398Z,80.00
2022-10-09T20:33:01.925Z,79.60
2022-10-09T20:35:30.267Z,79.40
2022-10-09T20:37:59.282Z,79.80
2022-10-09T20:40:27.714Z,80.00
2022-10-09T20:42:55.807Z,79.90
2022-10-09T20:45:23.703Z,79.90
2022-10-09T20:47:53.114Z,80.00
2022-10-09T20:50:21.049Z,80.40
2022-10-09T20:52:49.216Z,80.50
2022-10-09T20:55:17.634Z,80.80
2022-10-09T20:57:45.530Z,80.90
2022-10-09T21:00:14.380Z,81.10
2022-10-09T21:02:42.349Z,81.30
2022-10-09T21:05:11.820Z,81.50
2022-10-09T21:07:39.823Z,82.00
2022-10-09T21:10:08.619Z,81.90
2022-10-09T21:12:36.571Z,82.10
2022-10-09T21:15:05.480Z,82.30
2022-10-09T21:17:33.422Z,82.40
2022-10-09T21:20:01.735Z,82.80
2022-10-09T21:22:31.140Z,83.30
2022-10-09T21:24:59.208Z,83.30
2022-10-09T21:27:27.117Z,83.40
2022-10-09T21:29:55.138Z,83.40
2022-10-09T21:32:23.058Z,83.60
2022-10-09T21:34:51.319Z,83.70
2022-10-09T21:37:21.852Z,83.80
2022-10-09T21:39:51.678Z,84.00
2022-10-09T21:42:19.589Z,84.20
2022-10-09T21:44:47.574Z,84.50
2022-10-09T21:47:18.756Z,84.90
2022-10-09T21:49:47.174Z,85.40
2022-10-09T21:52:15.165Z,85.70
2022-10-09T21:54:43.140Z,86.00
2022-10-09T21:57:12.466Z,85.90
2022-10-09T21:59:40.345Z,86.00
2022-10-09T22:02:08.367Z,86.40
2022-10-09T22:04:36.538Z,86.70
2022-10-09T22:07:04.569Z,87.20
2022-10-09T22:09:32.486Z,87.30
2022-10-09T22:12:01.225Z,87.20
2022-10-09T22:14:31.673Z,87.00
2022-10-09T22:16:59.690Z,87.60
2022-10-09T22:19:27.640Z,87.70
2022-10-09T22:21:55.578Z,87.60
2022-10-09T22:24:28.976Z,87.60
2022-10-09T22:26:57.354Z,88.00
2022-10-09T22:29:25.614Z,88.20
2022-10-09T22:31:55.089Z,88.30
2022-10-09T22:34:23.015Z,88.70
2022-10-09T22:36:51.082Z,88.70
2022-10-09T22:39:19.045Z,89.00
2022-10-09T22:41:47.038Z,89.50
2022-10-09T22:44:15.020Z,89.30
2022-10-09T22:46:44.923Z,89.30
2022-10-09T22:49:16.127Z,89.20
2022-10-09T22:51:44.561Z,89.20
2022-10-09T22:54:13.465Z,89.20
2022-10-09T22:56:43.459Z,89.90
2022-10-09T22:59:14.450Z,89.60
2022-10-09T23:01:45.320Z,89.70
2022-10-09T23:07:11.177Z,90.10
2022-10-09T23:09:39.171Z,90.00
2022-10-09T23:12:07.151Z,90.00
2022-10-09T23:14:35.067Z,90.00
2022-10-09T23:17:03.055Z,90.10
2022-10-09T23:19:32.413Z,90.00
2022-10-09T23:22:00.369Z,90.10
2022-10-09T23:24:28.350Z,90.10
2022-10-09T23:26:56.268Z,90.40
2022-10-09T23:29:24.250Z,90.50
2022-10-09T23:31:53.232Z,90.40
2022-10-09T23:34:21.242Z,90.50
2022-10-09T23:36:50.480Z,90.60
2022-10-09T23:39:18.406Z,90.60
2022-10-09T23:41:46.411Z,90.70
2022-10-09T23:44:15.965Z,90.80
2022-10-09T23:46:45.720Z,91.00
2022-10-09T23:49:13.650Z,91.10
2022-10-09T23:51:41.686Z,91.00
2022-10-09T23:54:11.496Z,91.30
2022-10-09T23:56:39.587Z,91.20
2022-10-09T23:59:07.766Z,91.10
